sensor_id;sensor_type;location;lat;lon;timestamp;P1;durP1;ratioP1;P2;durP2;ratioP2
75997;SDS011;64685;48.762;44.822;2023-01-31T00:03:17;32.35;;;13.43;;
75997;SDS011;64685;48.762;44.822;2023-01-31T00:08:19;45.85;;;16.70;;
75997;SDS011;64685;48.762;44.822;2023-01-31T00:13:22;52.35;;;18.13;;
75997;SDS011;64685;48.762;44.822;2023-01-31T00:18:24;47.38;;;17.38;;
75997;SDS011;64685;48.762;44.822;2023-01-31T00:23:26;46.95;;;16.58;;
75997;SDS011;64685;48.762;44.822;2023-01-31T00:28:29;49.45;;;19.42;;
75997;SDS011;64685;48.762;44.822;2023-01-31T00:33:32;44.08;;;17.63;;
75997;SDS011;64685;48.762;44.822;2023-01-31T00:38:35;49.50;;;18.60;;
75997;SDS011;64685;48.762;44.822;2023-01-31T00:43:39;44.85;;;17.63;;
75997;SDS011;64685;48.762;44.822;2023-01-31T00:48:43;42.72;;;15.63;;
75997;SDS011;64685;48.762;44.822;2023-01-31T00:53:46;40.65;;;16.17;;
75997;SDS011;64685;48.762;44.822;2023-01-31T00:58:49;20.58;;;8.85;;
75997;SDS011;64685;48.762;44.822;2023-01-31T01:03:53;37.30;;;14.38;;
75997;SDS011;64685;48.762;44.822;2023-01-31T01:08:57;32.90;;;11.82;;
75997;SDS011;64685;48.762;44.822;2023-01-31T01:14:01;42.97;;;16.00;;
75997;SDS011;64685;48.762;44.822;2023-01-31T01:19:04;33.83;;;12.60;;
75997;SDS011;64685;48.762;44.822;2023-01-31T01:24:13;35.53;;;13.90;;
75997;SDS011;64685;48.762;44.822;2023-01-31T01:29:17;43.75;;;16.90;;
75997;SDS011;64685;48.762;44.822;2023-01-31T01:34:19;42.95;;;16.40;;
75997;SDS011;64685;48.762;44.822;2023-01-31T01:39:22;39.67;;;17.45;;
75997;SDS011;64685;48.762;44.822;2023-01-31T01:50:02;48.25;;;16.10;;
75997;SDS011;64685;48.762;44.822;2023-01-31T01:55:29;40.75;;;16.17;;
75997;SDS011;64685;48.762;44.822;2023-01-31T02:00:37;47.63;;;17.27;;
75997;SDS011;64685;48.762;44.822;2023-01-31T02:05:48;46.00;;;16.73;;
75997;SDS011;64685;48.762;44.822;2023-01-31T02:16:07;42.95;;;17.27;;
75997;SDS011;64685;48.762;44.822;2023-01-31T02:26:52;32.30;;;13.55;;
75997;SDS011;64685;48.762;44.822;2023-01-31T02:48:50;30.95;;;10.98;;
75997;SDS011;64685;48.762;44.822;2023-01-31T02:53:55;36.10;;;13.75;;
75997;SDS011;64685;48.762;44.822;2023-01-31T02:59:17;43.03;;;17.52;;
75997;SDS011;64685;48.762;44.822;2023-01-31T03:04:29;33.35;;;15.95;;
75997;SDS011;64685;48.762;44.822;2023-01-31T03:09:36;37.83;;;13.90;;
75997;SDS011;64685;48.762;44.822;2023-01-31T03:20:09;31.73;;;12.82;;
75997;SDS011;64685;48.762;44.822;2023-01-31T03:25:28;34.42;;;14.27;;
75997;SDS011;64685;48.762;44.822;2023-01-31T03:36:05;39.63;;;14.43;;
75997;SDS011;64685;48.762;44.822;2023-01-31T03:41:36;48.90;;;17.73;;
75997;SDS011;64685;48.762;44.822;2023-01-31T03:46:49;39.90;;;14.98;;
75997;SDS011;64685;48.762;44.822;2023-01-31T03:51:58;40.47;;;15.45;;
75997;SDS011;64685;48.762;44.822;2023-01-31T03:57:16;41.10;;;16.23;;
75997;SDS011;64685;48.762;44.822;2023-01-31T04:02:34;42.60;;;15.85;;
75997;SDS011;64685;48.762;44.822;2023-01-31T04:07:39;44.47;;;15.90;;
75997;SDS011;64685;48.762;44.822;2023-01-31T04:12:45;42.90;;;16.50;;
75997;SDS011;64685;48.762;44.822;2023-01-31T04:17:48;45.85;;;18.02;;
75997;SDS011;64685;48.762;44.822;2023-01-31T04:22:51;30.65;;;12.85;;
75997;SDS011;64685;48.762;44.822;2023-01-31T04:27:53;40.97;;;15.82;;
75997;SDS011;64685;48.762;44.822;2023-01-31T04:32:56;44.08;;;15.43;;
75997;SDS011;64685;48.762;44.822;2023-01-31T04:37:58;40.50;;;14.82;;
75997;SDS011;64685;48.762;44.822;2023-01-31T04:43:01;46.40;;;15.52;;
75997;SDS011;64685;48.762;44.822;2023-01-31T04:48:03;46.75;;;14.85;;
75997;SDS011;64685;48.762;44.822;2023-01-31T04:53:06;51.50;;;19.48;;
75997;SDS011;64685;48.762;44.822;2023-01-31T04:58:10;42.83;;;14.75;;
75997;SDS011;64685;48.762;44.822;2023-01-31T05:03:12;40.92;;;14.93;;
75997;SDS011;64685;48.762;44.822;2023-01-31T05:08:15;46.25;;;16.42;;
75997;SDS011;64685;48.762;44.822;2023-01-31T05:13:18;40.30;;;15.05;;
75997;SDS011;64685;48.762;44.822;2023-01-31T05:18:20;43.13;;;15.90;;
75997;SDS011;64685;48.762;44.822;2023-01-31T05:23:23;46.95;;;16.38;;
75997;SDS011;64685;48.762;44.822;2023-01-31T05:28:26;45.85;;;16.65;;
75997;SDS011;64685;48.762;44.822;2023-01-31T05:33:28;48.40;;;18.08;;
75997;SDS011;64685;48.762;44.822;2023-01-31T05:38:33;38.40;;;16.95;;
75997;SDS011;64685;48.762;44.822;2023-01-31T05:43:35;45.08;;;16.90;;
75997;SDS011;64685;48.762;44.822;2023-01-31T05:48:38;40.78;;;14.63;;
75997;SDS011;64685;48.762;44.822;2023-01-31T05:53:40;36.83;;;14.85;;
75997;SDS011;64685;48.762;44.822;2023-01-31T05:58:43;43.22;;;17.55;;
75997;SDS011;64685;48.762;44.822;2023-01-31T06:03:49;26.63;;;11.02;;
75997;SDS011;64685;48.762;44.822;2023-01-31T06:08:51;44.97;;;15.88;;
75997;SDS011;64685;48.762;44.822;2023-01-31T06:13:54;28.42;;;10.90;;
75997;SDS011;64685;48.762;44.822;2023-01-31T06:18:59;41.30;;;14.73;;
75997;SDS011;64685;48.762;44.822;2023-01-31T06:24:02;43.90;;;16.63;;
75997;SDS011;64685;48.762;44.822;2023-01-31T06:29:06;42.78;;;15.05;;
75997;SDS011;64685;48.762;44.822;2023-01-31T06:34:10;43.75;;;14.82;;
75997;SDS011;64685;48.762;44.822;2023-01-31T06:39:13;42.60;;;16.33;;
75997;SDS011;64685;48.762;44.822;2023-01-31T06:44:15;25.15;;;9.75;;
75997;SDS011;64685;48.762;44.822;2023-01-31T06:49:18;37.58;;;13.55;;
75997;SDS011;64685;48.762;44.822;2023-01-31T06:54:20;48.38;;;17.38;;
75997;SDS011;64685;48.762;44.822;2023-01-31T06:59:23;40.70;;;13.40;;
75997;SDS011;64685;48.762;44.822;2023-01-31T07:04:25;37.40;;;14.65;;
75997;SDS011;64685;48.762;44.822;2023-01-31T07:09:28;35.03;;;14.30;;
75997;SDS011;64685;48.762;44.822;2023-01-31T07:14:30;38.03;;;15.98;;
75997;SDS011;64685;48.762;44.822;2023-01-31T07:19:33;36.88;;;16.17;;
75997;SDS011;64685;48.762;44.822;2023-01-31T07:24:35;36.83;;;13.98;;
75997;SDS011;64685;48.762;44.822;2023-01-31T07:29:38;40.35;;;15.55;;
75997;SDS011;64685;48.762;44.822;2023-01-31T07:34:41;39.88;;;16.80;;
75997;SDS011;64685;48.762;44.822;2023-01-31T07:39:43;32.50;;;12.65;;
75997;SDS011;64685;48.762;44.822;2023-01-31T07:44:46;38.58;;;15.70;;
75997;SDS011;64685;48.762;44.822;2023-01-31T07:49:48;36.05;;;16.17;;
75997;SDS011;64685;48.762;44.822;2023-01-31T07:54:51;25.05;;;11.60;;
75997;SDS011;64685;48.762;44.822;2023-01-31T07:59:54;29.35;;;13.02;;
75997;SDS011;64685;48.762;44.822;2023-01-31T08:04:56;38.03;;;16.55;;
75997;SDS011;64685;48.762;44.822;2023-01-31T08:09:59;38.22;;;16.58;;
75997;SDS011;64685;48.762;44.822;2023-01-31T08:15:04;42.05;;;17.90;;
75997;SDS011;64685;48.762;44.822;2023-01-31T08:20:07;35.85;;;14.50;;
75997;SDS011;64685;48.762;44.822;2023-01-31T08:25:10;38.85;;;17.02;;
75997;SDS011;64685;48.762;44.822;2023-01-31T08:30:13;39.58;;;16.60;;
75997;SDS011;64685;48.762;44.822;2023-01-31T08:35:15;30.83;;;12.57;;
75997;SDS011;64685;48.762;44.822;2023-01-31T08:40:18;31.73;;;14.68;;
75997;SDS011;64685;48.762;44.822;2023-01-31T08:45:21;37.30;;;15.13;;
75997;SDS011;64685;48.762;44.822;2023-01-31T08:50:26;35.80;;;15.75;;
75997;SDS011;64685;48.762;44.822;2023-01-31T08:55:30;29.50;;;13.63;;
75997;SDS011;64685;48.762;44.822;2023-01-31T09:00:33;33.08;;;13.95;;
75997;SDS011;64685;48.762;44.822;2023-01-31T09:05:36;36.42;;;14.63;;
75997;SDS011;64685;48.762;44.822;2023-01-31T09:10:39;32.92;;;14.30;;
75997;SDS011;64685;48.762;44.822;2023-01-31T09:15:41;30.95;;;12.40;;
75997;SDS011;64685;48.762;44.822;2023-01-31T09:20:43;31.25;;;11.52;;
75997;SDS011;64685;48.762;44.822;2023-01-31T09:25:53;36.38;;;14.05;;
75997;SDS011;64685;48.762;44.822;2023-01-31T09:31:01;31.60;;;13.05;;
75997;SDS011;64685;48.762;44.822;2023-01-31T09:36:08;30.67;;;12.93;;
75997;SDS011;64685;48.762;44.822;2023-01-31T09:46:34;40.50;;;13.88;;
75997;SDS011;64685;48.762;44.822;2023-01-31T09:51:40;28.33;;;11.75;;
75997;SDS011;64685;48.762;44.822;2023-01-31T10:08:12;29.90;;;12.25;;
75997;SDS011;64685;48.762;44.822;2023-01-31T10:13:09;34.58;;;14.93;;
75997;SDS011;64685;48.762;44.822;2023-01-31T10:18:28;33.83;;;13.60;;
75997;SDS011;64685;48.762;44.822;2023-01-31T10:23:53;32.35;;;12.50;;
75997;SDS011;64685;48.762;44.822;2023-01-31T10:34:41;32.70;;;14.23;;
75997;SDS011;64685;48.762;44.822;2023-01-31T10:39:49;33.58;;;14.20;;
75997;SDS011;64685;48.762;44.822;2023-01-31T10:44:58;36.95;;;13.45;;
75997;SDS011;64685;48.762;44.822;2023-01-31T10:50:15;35.33;;;13.90;;
75997;SDS011;64685;48.762;44.822;2023-01-31T11:00:42;33.22;;;13.23;;
75997;SDS011;64685;48.762;44.822;2023-01-31T11:05:52;31.80;;;11.70;;
75997;SDS011;64685;48.762;44.822;2023-01-31T11:10:57;30.77;;;13.10;;
75997;SDS011;64685;48.762;44.822;2023-01-31T11:16:09;29.67;;;12.88;;
75997;SDS011;64685;48.762;44.822;2023-01-31T11:21:24;31.15;;;12.88;;
75997;SDS011;64685;48.762;44.822;2023-01-31T11:26:33;30.50;;;13.90;;
75997;SDS011;64685;48.762;44.822;2023-01-31T11:31:39;30.60;;;13.18;;
75997;SDS011;64685;48.762;44.822;2023-01-31T11:36:44;29.73;;;12.43;;
75997;SDS011;64685;48.762;44.822;2023-01-31T11:41:48;32.88;;;13.52;;
75997;SDS011;64685;48.762;44.822;2023-01-31T11:52:02;32.42;;;12.18;;
75997;SDS011;64685;48.762;44.822;2023-01-31T11:57:19;34.00;;;13.07;;
75997;SDS011;64685;48.762;44.822;2023-01-31T12:07:46;34.65;;;12.65;;
75997;SDS011;64685;48.762;44.822;2023-01-31T12:12:51;30.42;;;13.60;;
75997;SDS011;64685;48.762;44.822;2023-01-31T12:17:54;33.92;;;14.30;;
75997;SDS011;64685;48.762;44.822;2023-01-31T12:56:17;39.13;;;15.15;;
75997;SDS011;64685;48.762;44.822;2023-01-31T13:06:56;36.25;;;13.00;;
75997;SDS011;64685;48.762;44.822;2023-01-31T13:12:06;39.00;;;13.88;;
75997;SDS011;64685;48.762;44.822;2023-01-31T13:17:21;36.55;;;13.63;;
75997;SDS011;64685;48.762;44.822;2023-01-31T13:22:29;35.33;;;13.43;;
75997;SDS011;64685;48.762;44.822;2023-01-31T13:27:43;34.58;;;13.75;;
75997;SDS011;64685;48.762;44.822;2023-01-31T13:32:58;33.03;;;14.05;;
75997;SDS011;64685;48.762;44.822;2023-01-31T13:38:10;32.83;;;14.27;;
75997;SDS011;64685;48.762;44.822;2023-01-31T13:43:17;33.00;;;13.48;;
75997;SDS011;64685;48.762;44.822;2023-01-31T13:48:24;30.20;;;12.90;;
75997;SDS011;64685;48.762;44.822;2023-01-31T13:53:30;38.75;;;13.35;;
75997;SDS011;64685;48.762;44.822;2023-01-31T13:58:37;37.80;;;14.15;;
75997;SDS011;64685;48.762;44.822;2023-01-31T14:57:09;36.60;;;14.15;;
75997;SDS011;64685;48.762;44.822;2023-01-31T15:07:34;34.45;;;12.25;;
75997;SDS011;64685;48.762;44.822;2023-01-31T15:17:56;30.33;;;11.00;;
75997;SDS011;64685;48.762;44.822;2023-01-31T15:23:03;22.50;;;9.15;;
75997;SDS011;64685;48.762;44.822;2023-01-31T15:28:16;31.88;;;12.73;;
75997;SDS011;64685;48.762;44.822;2023-01-31T15:33:30;32.63;;;12.30;;
75997;SDS011;64685;48.762;44.822;2023-01-31T15:44:10;31.55;;;12.48;;
75997;SDS011;64685;48.762;44.822;2023-01-31T15:49:27;26.00;;;8.48;;
75997;SDS011;64685;48.762;44.822;2023-01-31T15:55:01;29.17;;;12.05;;
75997;SDS011;64685;48.762;44.822;2023-01-31T16:00:12;35.15;;;13.65;;
75997;SDS011;64685;48.762;44.822;2023-01-31T16:05:21;38.05;;;12.85;;
75997;SDS011;64685;48.762;44.822;2023-01-31T16:10:24;27.90;;;12.20;;
75997;SDS011;64685;48.762;44.822;2023-01-31T16:15:29;34.50;;;13.48;;
75997;SDS011;64685;48.762;44.822;2023-01-31T16:25:43;36.22;;;12.60;;
75997;SDS011;64685;48.762;44.822;2023-01-31T16:30:54;34.08;;;12.57;;
75997;SDS011;64685;48.762;44.822;2023-01-31T16:36:09;25.30;;;10.70;;
75997;SDS011;64685;48.762;44.822;2023-01-31T16:41:20;28.77;;;11.55;;
75997;SDS011;64685;48.762;44.822;2023-01-31T16:46:43;28.42;;;11.50;;
75997;SDS011;64685;48.762;44.822;2023-01-31T16:51:48;30.23;;;11.60;;
75997;SDS011;64685;48.762;44.822;2023-01-31T17:02:14;26.60;;;11.40;;
75997;SDS011;64685;48.762;44.822;2023-01-31T17:12:30;23.65;;;10.05;;
75997;SDS011;64685;48.762;44.822;2023-01-31T17:17:35;22.45;;;9.07;;
75997;SDS011;64685;48.762;44.822;2023-01-31T17:22:43;28.02;;;11.80;;
75997;SDS011;64685;48.762;44.822;2023-01-31T17:28:03;26.27;;;9.15;;
75997;SDS011;64685;48.762;44.822;2023-01-31T17:33:08;27.67;;;10.10;;
75997;SDS011;64685;48.762;44.822;2023-01-31T17:38:16;22.85;;;8.07;;
75997;SDS011;64685;48.762;44.822;2023-01-31T17:43:20;20.02;;;8.15;;
75997;SDS011;64685;48.762;44.822;2023-01-31T17:48:23;25.85;;;10.20;;
75997;SDS011;64685;48.762;44.822;2023-01-31T17:53:27;27.67;;;9.02;;
75997;SDS011;64685;48.762;44.822;2023-01-31T17:58:43;22.05;;;9.82;;
75997;SDS011;64685;48.762;44.822;2023-01-31T18:03:50;20.88;;;8.25;;
75997;SDS011;64685;48.762;44.822;2023-01-31T18:08:59;21.55;;;9.45;;
75997;SDS011;64685;48.762;44.822;2023-01-31T18:14:10;20.45;;;7.88;;
75997;SDS011;64685;48.762;44.822;2023-01-31T18:19:12;24.02;;;10.05;;
75997;SDS011;64685;48.762;44.822;2023-01-31T18:24:15;28.35;;;9.45;;
75997;SDS011;64685;48.762;44.822;2023-01-31T18:29:17;28.15;;;11.10;;
75997;SDS011;64685;48.762;44.822;2023-01-31T18:34:22;25.45;;;7.95;;
75997;SDS011;64685;48.762;44.822;2023-01-31T18:39:27;27.48;;;11.23;;
75997;SDS011;64685;48.762;44.822;2023-01-31T18:44:30;21.08;;;9.23;;
75997;SDS011;64685;48.762;44.822;2023-01-31T18:49:33;25.42;;;10.70;;
75997;SDS011;64685;48.762;44.822;2023-01-31T18:54:38;24.95;;;10.07;;
75997;SDS011;64685;48.762;44.822;2023-01-31T18:59:43;25.10;;;9.20;;
75997;SDS011;64685;48.762;44.822;2023-01-31T19:04:45;24.02;;;9.57;;
75997;SDS011;64685;48.762;44.822;2023-01-31T19:09:48;25.23;;;9.60;;
75997;SDS011;64685;48.762;44.822;2023-01-31T19:14:50;24.25;;;10.60;;
75997;SDS011;64685;48.762;44.822;2023-01-31T19:19:59;31.42;;;11.88;;
75997;SDS011;64685;48.762;44.822;2023-01-31T19:25:01;27.15;;;10.32;;
75997;SDS011;64685;48.762;44.822;2023-01-31T19:30:06;22.88;;;9.35;;
75997;SDS011;64685;48.762;44.822;2023-01-31T19:35:09;23.00;;;10.48;;
75997;SDS011;64685;48.762;44.822;2023-01-31T19:40:12;31.48;;;10.90;;
75997;SDS011;64685;48.762;44.822;2023-01-31T19:45:14;29.48;;;10.75;;
75997;SDS011;64685;48.762;44.822;2023-01-31T19:50:23;29.48;;;12.35;;
75997;SDS011;64685;48.762;44.822;2023-01-31T19:55:25;27.75;;;11.63;;
75997;SDS011;64685;48.762;44.822;2023-01-31T20:00:28;31.00;;;11.93;;
75997;SDS011;64685;48.762;44.822;2023-01-31T20:05:31;24.00;;;10.35;;
75997;SDS011;64685;48.762;44.822;2023-01-31T20:10:34;27.33;;;12.05;;
75997;SDS011;64685;48.762;44.822;2023-01-31T20:15:38;24.98;;;9.98;;
75997;SDS011;64685;48.762;44.822;2023-01-31T20:20:42;26.13;;;10.07;;
75997;SDS011;64685;48.762;44.822;2023-01-31T20:25:49;24.83;;;9.77;;
75997;SDS011;64685;48.762;44.822;2023-01-31T20:30:53;33.33;;;11.57;;
75997;SDS011;64685;48.762;44.822;2023-01-31T20:35:56;23.33;;;9.63;;
75997;SDS011;64685;48.762;44.822;2023-01-31T20:40:58;22.70;;;11.32;;
75997;SDS011;64685;48.762;44.822;2023-01-31T20:46:11;24.83;;;10.13;;
75997;SDS011;64685;48.762;44.822;2023-01-31T20:51:15;36.63;;;13.75;;
75997;SDS011;64685;48.762;44.822;2023-01-31T20:56:18;31.55;;;12.10;;
75997;SDS011;64685;48.762;44.822;2023-01-31T21:01:20;30.65;;;12.70;;
75997;SDS011;64685;48.762;44.822;2023-01-31T21:06:23;27.52;;;11.07;;
75997;SDS011;64685;48.762;44.822;2023-01-31T21:11:25;29.55;;;13.00;;
75997;SDS011;64685;48.762;44.822;2023-01-31T21:16:28;37.75;;;15.27;;
75997;SDS011;64685;48.762;44.822;2023-01-31T21:21:30;51.78;;;18.92;;
75997;SDS011;64685;48.762;44.822;2023-01-31T21:26:34;59.15;;;22.95;;
75997;SDS011;64685;48.762;44.822;2023-01-31T21:31:37;63.42;;;23.95;;
75997;SDS011;64685;48.762;44.822;2023-01-31T21:36:39;67.32;;;24.80;;
75997;SDS011;64685;48.762;44.822;2023-01-31T21:41:44;66.60;;;25.88;;
75997;SDS011;64685;48.762;44.822;2023-01-31T21:47:06;72.68;;;26.02;;
75997;SDS011;64685;48.762;44.822;2023-01-31T21:52:08;61.95;;;24.15;;
75997;SDS011;64685;48.762;44.822;2023-01-31T21:57:11;45.90;;;15.05;;
75997;SDS011;64685;48.762;44.822;2023-01-31T22:02:13;36.95;;;14.93;;
75997;SDS011;64685;48.762;44.822;2023-01-31T22:07:16;40.15;;;15.05;;
75997;SDS011;64685;48.762;44.822;2023-01-31T22:12:19;36.30;;;13.18;;
75997;SDS011;64685;48.762;44.822;2023-01-31T22:17:21;36.95;;;13.93;;
75997;SDS011;64685;48.762;44.822;2023-01-31T22:22:23;43.65;;;16.25;;
75997;SDS011;64685;48.762;44.822;2023-01-31T22:27:26;37.10;;;13.35;;
75997;SDS011;64685;48.762;44.822;2023-01-31T22:32:28;36.75;;;13.25;;
75997;SDS011;64685;48.762;44.822;2023-01-31T22:37:31;28.02;;;10.80;;
75997;SDS011;64685;48.762;44.822;2023-01-31T22:42:33;27.17;;;10.32;;
75997;SDS011;64685;48.762;44.822;2023-01-31T22:47:36;30.23;;;10.75;;
75997;SDS011;64685;48.762;44.822;2023-01-31T22:52:39;20.85;;;8.93;;
75997;SDS011;64685;48.762;44.822;2023-01-31T22:57:41;19.90;;;8.20;;
75997;SDS011;64685;48.762;44.822;2023-01-31T23:02:43;23.75;;;8.27;;
75997;SDS011;64685;48.762;44.822;2023-01-31T23:07:46;19.17;;;7.80;;
75997;SDS011;64685;48.762;44.822;2023-01-31T23:12:49;27.70;;;7.88;;
75997;SDS011;64685;48.762;44.822;2023-01-31T23:17:51;27.33;;;9.05;;
75997;SDS011;64685;48.762;44.822;2023-01-31T23:22:54;22.23;;;8.18;;
75997;SDS011;64685;48.762;44.822;2023-01-31T23:27:58;22.38;;;8.00;;
75997;SDS011;64685;48.762;44.822;2023-01-31T23:33:02;20.48;;;7.15;;
75997;SDS011;64685;48.762;44.822;2023-01-31T23:38:04;18.92;;;6.78;;
75997;SDS011;64685;48.762;44.822;2023-01-31T23:43:07;18.85;;;8.13;;
75997;SDS011;64685;48.762;44.822;2023-01-31T23:48:10;23.63;;;7.72;;
75997;SDS011;64685;48.762;44.822;2023-01-31T23:53:13;16.02;;;7.00;;
75997;SDS011;64685;48.762;44.822;2023-01-31T23:58:15;19.38;;;7.03;;
